Cosmos — SV3378 — position and weather

sailwx.info

Track history (hours):
 
Tides and Currents Weather Stations Pressure Air Temp Water Temp Dewpoint Dewpoint Depression Visibility Wind Speed Wind Dir Waves Ship Positions

Cosmos

Last reported at 2018-Jul-10 17:22 UTC. Time now 2018-Aug-19 22:53 UTC.
Position N 37°56' E 023°41'.
Warning: this ship's position is 40 days out of date.

Length 68 m; draft 3 m.

Type: Passenger vessel. MMSI: 237013400.

Date/timePositionNaut miles runAvg speedWind from/ knotsBaromVisibWave heightAir tempDewpointWater temp
2018-Jul-10 17:22N 37°56' E 023°41'0 0.1
2018-Jul-10 17:01N 37°56' E 023°41'1 1.9
2018-Jul-10 16:30N 37°56' E 023°40'714.2
2018-Jul-10 16:00N 37°51' E 023°33'714.0
2018-Jul-10 15:31N 37°47' E 023°26'2 4.6
2018-Jul-10 15:00N 37°45' E 023°26'0 0.0
2018-Jul-10 14:30N 37°45' E 023°26'0 0.0
2018-Jul-10 14:00N 37°45' E 023°26'0 0.0
2018-Jul-10 13:30N 37°45' E 023°26'2 4.5
2018-Jul-10 13:00N 37°43' E 023°25'714.1
2018-Jul-10 12:29N 37°35' E 023°25'5 3.8
2018-Jul-10 11:02N 37°30' E 023°27'0 0.9
2018-Jul-10 11:00N 37°30' E 023°27'611.3
2018-Jul-10 10:30N 37°27' E 023°33'6 2.6
2018-Jul-10 08:03N 37°22' E 023°28'114.1
2018-Jul-10 08:00N 37°22' E 023°29'913.5
2018-Jul-10 07:22N 37°30' E 023°34'613.9
2018-Jul-10 06:58N 37°35' E 023°36'613.9
2018-Jul-10 06:31N 37°41' E 023°37'713.9
2018-Jul-10 06:00N 37°48' E 023°39'713.9
2018-Jul-10 05:31N 37°55' E 023°40'1 2.9
2018-Jul-10 05:00N 37°56' E 023°41'0 0.0
2018-Jul-10 04:30N 37°56' E 023°41'0 0.0
2018-Jul-10 04:00N 37°56' E 023°41'0 0.0
2018-Jul-09 16:43N 37°56' E 023°41'0 2.4
2018-Jul-09 16:30N 37°56' E 023°40'714.1
2018-Jul-09 16:00N 37°52' E 023°34'714.2
2018-Jul-09 15:31N 37°47' E 023°27'3 5.0
2018-Jul-09 15:00N 37°45' E 023°26'0 0.0
2018-Jul-09 14:30N 37°45' E 023°26'0 0.0
2018-Jul-09 14:00N 37°45' E 023°26'0 0.0
2018-Jul-09 13:30N 37°45' E 023°26'1 2.1
2018-Jul-09 13:00N 37°44' E 023°25'714.2
2018-Jul-09 12:30N 37°37' E 023°25'712.6
2018-Jul-09 11:59N 37°30' E 023°27'0 0.4
2018-Jul-09 11:29N 37°30' E 023°27'0 0.1
2018-Jul-09 11:00N 37°30' E 023°27'611.1
2018-Jul-09 10:30N 37°27' E 023°33'6 2.6
2018-Jul-09 08:02N 37°22' E 023°28'010.7
2018-Jul-09 08:00N 37°22' E 023°28'913.7
2018-Jul-09 07:21N 37°29' E 023°34'513.7
2018-Jul-09 07:00N 37°34' E 023°35'714.0
2018-Jul-09 06:30N 37°41' E 023°37'714.0
2018-Jul-09 06:01N 37°48' E 023°39'713.9
2018-Jul-09 05:30N 37°55' E 023°40'2 3.4
2018-Jul-09 05:00N 37°56' E 023°41'0 0.0
2018-Jul-09 04:30N 37°56' E 023°41'0 0.0
2018-Jul-09 04:00N 37°56' E 023°41'0 0.0
2018-Jul-08 16:39N 37°56' E 023°41'0 0.4
2018-Jul-08 16:31N 37°56' E 023°41'713.0
2018-Jul-08 16:00N 37°52' E 023°35'714.1
2018-Jul-08 15:30N 37°48' E 023°28'3 6.8
2018-Jul-08 15:01N 37°45' E 023°26'0 0.0
2018-Jul-08 14:30N 37°45' E 023°26'0 0.0
2018-Jul-08 14:00N 37°45' E 023°26'0 0.0
2018-Jul-08 13:31N 37°45' E 023°26'1210.1
2018-Jul-08 12:19N 37°33' E 023°25'3 2.8
2018-Jul-08 11:13N 37°30' E 023°27'1 4.9
2018-Jul-08 10:59N 37°30' E 023°28'4 7.4
2018-Jul-08 10:28N 37°27' E 023°32'612.9
2018-Jul-08 10:00N 37°22' E 023°28'0 0.1
2018-Jul-08 08:00N 37°22' E 023°28'1013.3
2018-Jul-08 07:16N 37°30' E 023°34'413.7
2018-Jul-08 07:00N 37°34' E 023°35'713.8
2018-Jul-08 06:30N 37°41' E 023°36'713.6
2018-Jul-08 06:00N 37°47' E 023°38'713.6
2018-Jul-08 05:30N 37°54' E 023°40'3 5.1
2018-Jul-08 05:01N 37°56' E 023°41'0 0.0
2018-Jul-08 04:31N 37°56' E 023°41'0 0.0
2018-Jul-08 04:01N 37°56' E 023°41'0 0.0
2018-Jul-07 16:44N 37°56' E 023°41'1 3.8
2018-Jul-07 16:30N 37°56' E 023°40'713.9
2018-Jul-07 16:00N 37°52' E 023°33'713.7
2018-Jul-07 15:30N 37°47' E 023°26'3 5.2
2018-Jul-07 15:00N 37°45' E 023°26'0 0.0
2018-Jul-07 14:30N 37°45' E 023°26'0 0.0
2018-Jul-07 14:00N 37°45' E 023°26'0 0.0
2018-Jul-07 13:30N 37°45' E 023°26'2 4.0
2018-Jul-07 13:00N 37°43' E 023°25'714.1
2018-Jul-07 12:30N 37°36' E 023°25'6 5.9
2018-Jul-07 11:30N 37°30' E 023°27'0 0.0
2018-Jul-07 10:58N 37°30' E 023°27'510.7
2018-Jul-07 10:30N 37°27' E 023°32'6 2.3
2018-Jul-07 07:55N 37°22' E 023°28'613.8
2018-Jul-07 07:29N 37°26' E 023°33'713.8
2018-Jul-07 07:00N 37°33' E 023°35'713.9
2018-Jul-07 06:30N 37°40' E 023°36'714.0
2018-Jul-07 06:00N 37°46' E 023°38'713.9
2018-Jul-07 05:30N 37°53' E 023°40'3 6.3
2018-Jul-07 05:01N 37°56' E 023°41'0 0.0
2018-Jul-07 04:31N 37°56' E 023°41'0 0.0
2018-Jul-07 04:01N 37°56' E 023°41'0 0.0
2018-Jul-06 16:52N 37°56' E 023°41'3 8.6
2018-Jul-06 16:30N 37°55' E 023°38'714.2
2018-Jul-06 16:01N 37°50' E 023°31'713.5
2018-Jul-06 15:30N 37°45' E 023°25'1 1.4
2018-Jul-06 15:01N 37°45' E 023°26'0 0.0
2018-Jul-06 14:30N 37°45' E 023°26'0 0.0
2018-Jul-06 14:00N 37°45' E 023°26'0 0.0
2018-Jul-06 13:30N 37°45' E 023°26'2 4.6
2018-Jul-06 13:01N 37°42' E 023°25'714.2
2018-Jul-06 12:31N 37°35' E 023°25'5 3.8
2018-Jul-06 11:04N 37°30' E 023°27'0 1.7
2018-Jul-06 10:59N 37°30' E 023°27'6 1.7
2018-Jul-06 07:35N 37°26' E 023°33'514.0
2018-Jul-06 07:13N 37°31' E 023°35'413.9
2018-Jul-06 06:55N 37°35' E 023°36'613.7
2018-Jul-06 06:30N 37°40' E 023°37'713.9
2018-Jul-06 06:00N 37°47' E 023°38'714.0
2018-Jul-06 05:31N 37°54' E 023°40'2 4.6
2018-Jul-06 05:00N 37°56' E 023°41'0 0.0
2018-Jul-06 04:30N 37°56' E 023°41'0 0.0
2018-Jul-06 04:00N 37°56' E 023°41'0 0.0
2018-Jul-05 16:51N 37°56' E 023°41'1 4.2
2018-Jul-05 16:30N 37°55' E 023°40'714.0
2018-Jul-05 16:00N 37°51' E 023°33'713.8
2018-Jul-05 15:30N 37°47' E 023°26'2 4.0
2018-Jul-05 15:00N 37°45' E 023°26'0 0.0
2018-Jul-05 14:30N 37°45' E 023°26'0 0.0
2018-Jul-05 13:29N 37°45' E 023°26'3 6.6
2018-Jul-05 13:00N 37°42' E 023°25'714.0
2018-Jul-05 12:29N 37°34' E 023°25'4 3.3
2018-Jul-05 11:07N 37°30' E 023°27'1 4.4
2018-Jul-05 10:59N 37°30' E 023°28'8 2.7
2018-Jul-05 08:04N 37°22' E 023°28'113.8
2018-Jul-05 08:00N 37°22' E 023°29'713.6
2018-Jul-05 07:29N 37°28' E 023°34'714.0
2018-Jul-05 07:00N 37°35' E 023°35'713.8
2018-Jul-05 06:30N 37°42' E 023°36'713.9
2018-Jul-05 06:00N 37°48' E 023°38'714.0
2018-Jul-05 05:30N 37°55' E 023°40'1 2.6
2018-Jul-05 05:00N 37°56' E 023°41'0 0.0
2018-Jul-05 04:31N 37°56' E 023°41'0 0.0
2018-Jul-05 04:00N 37°56' E 023°41'0 0.0
2018-Jul-05 03:30N 37°56' E 023°41'0 0.0
2018-Jul-04 16:47N 37°56' E 023°41'2 7.5
2018-Jul-04 16:30N 37°55' E 023°39'714.1
2018-Jul-04 16:00N 37°51' E 023°32'713.9
2018-Jul-04 15:30N 37°46' E 023°25'2 3.0
2018-Jul-04 15:00N 37°45' E 023°26'0 0.0
2018-Jul-04 14:30N 37°45' E 023°26'0 0.0
2018-Jul-04 14:00N 37°45' E 023°26'0 0.0
2018-Jul-04 13:30N 37°45' E 023°26'3 6.5
2018-Jul-04 13:00N 37°41' E 023°25'714.3
2018-Jul-04 12:30N 37°34' E 023°25'5 3.0
2018-Jul-04 10:58N 37°30' E 023°27'510.6
2018-Jul-04 10:30N 37°27' E 023°32'6 2.4
2018-Jul-04 07:59N 37°22' E 023°28'713.9
2018-Jul-04 07:30N 37°27' E 023°33'714.0
2018-Jul-04 07:00N 37°34' E 023°36'713.9
2018-Jul-04 06:31N 37°40' E 023°38'714.0
2018-Jul-04 06:01N 37°47' E 023°39'713.7
2018-Jul-04 05:30N 37°54' E 023°40'2 4.8
2018-Jul-04 05:00N 37°56' E 023°41'0 0.0
2018-Jul-04 04:30N 37°56' E 023°41'0 0.0
2018-Jul-04 04:00N 37°56' E 023°41'0 0.0
2018-Jul-03 16:53N 37°56' E 023°41'2 4.6
2018-Jul-03 16:30N 37°55' E 023°39'714.1
2018-Jul-03 16:00N 37°51' E 023°32'714.0
2018-Jul-03 15:30N 37°46' E 023°26'2 3.4
2018-Jul-03 15:01N 37°45' E 023°26'0 0.0
2018-Jul-03 14:30N 37°45' E 023°26'0 0.0
2018-Jul-03 14:00N 37°45' E 023°26'0 0.0
2018-Jul-03 13:30N 37°45' E 023°26'3 6.7
2018-Jul-03 13:00N 37°41' E 023°25'714.2
2018-Jul-03 12:30N 37°34' E 023°25'4 9.0
2018-Jul-03 12:00N 37°30' E 023°27'0 0.0
2018-Jul-03 11:30N 37°30' E 023°27'2 2.8
2018-Jul-03 10:58N 37°29' E 023°29'8 2.7
2018-Jul-03 08:07N 37°22' E 023°28'213.1
2018-Jul-03 07:59N 37°23' E 023°30'713.8
2018-Jul-03 07:30N 37°29' E 023°34'714.1
2018-Jul-03 07:00N 37°36' E 023°36'714.1
2018-Jul-03 06:30N 37°43' E 023°37'714.0
2018-Jul-03 06:00N 37°49' E 023°39'713.8
2018-Jul-03 05:30N 37°56' E 023°41'0 0.5
2018-Jul-03 05:00N 37°56' E 023°41'0 0.0
2018-Jul-03 04:30N 37°56' E 023°41'0 0.0
2018-Jul-03 04:00N 37°56' E 023°41'0 0.0
2018-Jul-02 16:39N 37°56' E 023°41'0 1.3
2018-Jul-02 16:30N 37°56' E 023°41'713.6
2018-Jul-02 16:00N 37°52' E 023°34'714.2
2018-Jul-02 15:30N 37°47' E 023°27'3 5.9
2018-Jul-02 15:00N 37°45' E 023°26'0 0.0
2018-Jul-02 14:30N 37°45' E 023°26'0 0.0
2018-Jul-02 14:00N 37°45' E 023°26'0 0.0
2018-Jul-02 13:30N 37°45' E 023°26'1 2.2
2018-Jul-02 13:00N 37°44' E 023°25'714.3
2018-Jul-02 12:30N 37°37' E 023°25'612.8
2018-Jul-02 12:00N 37°30' E 023°27'0 0.4
2018-Jul-02 10:58N 37°30' E 023°27'5 9.9
2018-Jul-02 10:30N 37°27' E 023°32'7 2.6
2018-Jul-02 07:55N 37°21' E 023°28'513.0
2018-Jul-02 07:31N 37°25' E 023°32'714.4
2018-Jul-02 07:00N 37°32' E 023°35'714.3
2018-Jul-02 06:31N 37°39' E 023°37'714.5
2018-Jul-02 06:00N 37°46' E 023°39'714.4
2018-Jul-02 05:30N 37°53' E 023°40'3 5.9
2018-Jul-02 05:00N 37°56' E 023°41'0 0.0
2018-Jul-02 04:30N 37°56' E 023°41'0 0.0
2018-Jul-02 04:00N 37°56' E 023°41'0 0.0
2018-Jul-01 16:33N 37°56' E 023°41'0 0.0
2018-Jul-01 16:31N 37°56' E 023°41'510.3
2018-Jul-01 16:00N 37°53' E 023°36'714.6
2018-Jul-01 15:30N 37°48' E 023°29'5 9.0
2018-Jul-01 15:00N 37°45' E 023°26'0 0.0
2018-Jul-01 14:30N 37°45' E 023°26'0 0.0
2018-Jul-01 14:00N 37°45' E 023°26'0 0.0
2018-Jul-01 13:30N 37°45' E 023°26'0 0.1
2018-Jul-01 13:00N 37°45' E 023°25'713.5
2018-Jul-01 12:31N 37°38' E 023°25'713.8
2018-Jul-01 11:59N 37°31' E 023°26'1 1.2
2018-Jul-01 10:55N 37°30' E 023°27'3 7.3
2018-Jul-01 10:30N 37°28' E 023°30'611.7
2018-Jul-01 09:57N 37°22' E 023°29'1 0.2
2018-Jul-01 07:49N 37°22' E 023°28'514.3
2018-Jul-01 07:28N 37°26' E 023°32'714.2
2018-Jul-01 07:01N 37°32' E 023°35'714.1
2018-Jul-01 06:30N 37°39' E 023°36'714.1
2018-Jul-01 06:00N 37°46' E 023°37'714.0
2018-Jul-01 05:31N 37°53' E 023°39'4 7.6
2018-Jul-01 05:00N 37°56' E 023°41'0 0.0
2018-Jul-01 04:30N 37°56' E 023°41'0 0.0
2018-Jul-01 04:00N 37°56' E 023°41'  
Track history (hours):
 
Tides and Currents Weather Stations Pressure Air Temp Water Temp Dewpoint Dewpoint Depression Visibility Wind Speed Wind Dir Waves Ship Positions

Cosmos

Last reported at 2018-Jul-10 17:22 UTC. Time now 2018-Aug-19 22:53 UTC.
Position N 37°56' E 023°41'.
Warning: this ship's position is 40 days out of date.

Length 68 m; draft 3 m.

Type: Passenger vessel. MMSI: 237013400.

Date/timePositionNaut miles runAvg speedWind from/ knotsBaromVisibWave heightAir tempDewpointWater temp
2018-Jul-10 17:22N 37°56' E 023°41'0 0.1
2018-Jul-10 17:01N 37°56' E 023°41'1 1.9
2018-Jul-10 16:30N 37°56' E 023°40'714.2
2018-Jul-10 16:00N 37°51' E 023°33'714.0
2018-Jul-10 15:31N 37°47' E 023°26'2 4.6
2018-Jul-10 15:00N 37°45' E 023°26'0 0.0
2018-Jul-10 14:30N 37°45' E 023°26'0 0.0
2018-Jul-10 14:00N 37°45' E 023°26'0 0.0
2018-Jul-10 13:30N 37°45' E 023°26'2 4.5
2018-Jul-10 13:00N 37°43' E 023°25'714.1
2018-Jul-10 12:29N 37°35' E 023°25'5 3.8
2018-Jul-10 11:02N 37°30' E 023°27'0 0.9
2018-Jul-10 11:00N 37°30' E 023°27'611.3
2018-Jul-10 10:30N 37°27' E 023°33'6 2.6
2018-Jul-10 08:03N 37°22' E 023°28'114.1
2018-Jul-10 08:00N 37°22' E 023°29'913.5
2018-Jul-10 07:22N 37°30' E 023°34'613.9
2018-Jul-10 06:58N 37°35' E 023°36'613.9
2018-Jul-10 06:31N 37°41' E 023°37'713.9
2018-Jul-10 06:00N 37°48' E 023°39'713.9
2018-Jul-10 05:31N 37°55' E 023°40'1 2.9
2018-Jul-10 05:00N 37°56' E 023°41'0 0.0
2018-Jul-10 04:30N 37°56' E 023°41'0 0.0
2018-Jul-10 04:00N 37°56' E 023°41'0 0.0
2018-Jul-09 16:43N 37°56' E 023°41'0 2.4
2018-Jul-09 16:30N 37°56' E 023°40'714.1
2018-Jul-09 16:00N 37°52' E 023°34'714.2
2018-Jul-09 15:31N 37°47' E 023°27'3 5.0
2018-Jul-09 15:00N 37°45' E 023°26'0 0.0
2018-Jul-09 14:30N 37°45' E 023°26'0 0.0
2018-Jul-09 14:00N 37°45' E 023°26'0 0.0
2018-Jul-09 13:30N 37°45' E 023°26'1 2.1
2018-Jul-09 13:00N 37°44' E 023°25'714.2
2018-Jul-09 12:30N 37°37' E 023°25'712.6
2018-Jul-09 11:59N 37°30' E 023°27'0 0.4
2018-Jul-09 11:29N 37°30' E 023°27'0 0.1
2018-Jul-09 11:00N 37°30' E 023°27'611.1
2018-Jul-09 10:30N 37°27' E 023°33'6 2.6
2018-Jul-09 08:02N 37°22' E 023°28'010.7
2018-Jul-09 08:00N 37°22' E 023°28'913.7
2018-Jul-09 07:21N 37°29' E 023°34'513.7
2018-Jul-09 07:00N 37°34' E 023°35'714.0
2018-Jul-09 06:30N 37°41' E 023°37'714.0
2018-Jul-09 06:01N 37°48' E 023°39'713.9
2018-Jul-09 05:30N 37°55' E 023°40'2 3.4
2018-Jul-09 05:00N 37°56' E 023°41'0 0.0
2018-Jul-09 04:30N 37°56' E 023°41'0 0.0
2018-Jul-09 04:00N 37°56' E 023°41'0 0.0
2018-Jul-08 16:39N 37°56' E 023°41'0 0.4
2018-Jul-08 16:31N 37°56' E 023°41'713.0
2018-Jul-08 16:00N 37°52' E 023°35'714.1
2018-Jul-08 15:30N 37°48' E 023°28'3 6.8
2018-Jul-08 15:01N 37°45' E 023°26'0 0.0
2018-Jul-08 14:30N 37°45' E 023°26'0 0.0
2018-Jul-08 14:00N 37°45' E 023°26'0 0.0
2018-Jul-08 13:31N 37°45' E 023°26'1210.1
2018-Jul-08 12:19N 37°33' E 023°25'3 2.8
2018-Jul-08 11:13N 37°30' E 023°27'1 4.9
2018-Jul-08 10:59N 37°30' E 023°28'4 7.4
2018-Jul-08 10:28N 37°27' E 023°32'612.9
2018-Jul-08 10:00N 37°22' E 023°28'0 0.1
2018-Jul-08 08:00N 37°22' E 023°28'1013.3
2018-Jul-08 07:16N 37°30' E 023°34'413.7
2018-Jul-08 07:00N 37°34' E 023°35'713.8
2018-Jul-08 06:30N 37°41' E 023°36'713.6
2018-Jul-08 06:00N 37°47' E 023°38'713.6
2018-Jul-08 05:30N 37°54' E 023°40'3 5.1
2018-Jul-08 05:01N 37°56' E 023°41'0 0.0
2018-Jul-08 04:31N 37°56' E 023°41'0 0.0
2018-Jul-08 04:01N 37°56' E 023°41'0 0.0
2018-Jul-07 16:44N 37°56' E 023°41'1 3.8
2018-Jul-07 16:30N 37°56' E 023°40'713.9
2018-Jul-07 16:00N 37°52' E 023°33'713.7
2018-Jul-07 15:30N 37°47' E 023°26'3 5.2
2018-Jul-07 15:00N 37°45' E 023°26'0 0.0
2018-Jul-07 14:30N 37°45' E 023°26'0 0.0
2018-Jul-07 14:00N 37°45' E 023°26'0 0.0
2018-Jul-07 13:30N 37°45' E 023°26'2 4.0
2018-Jul-07 13:00N 37°43' E 023°25'714.1
2018-Jul-07 12:30N 37°36' E 023°25'6 5.9
2018-Jul-07 11:30N 37°30' E 023°27'0 0.0
2018-Jul-07 10:58N 37°30' E 023°27'510.7
2018-Jul-07 10:30N 37°27' E 023°32'6 2.3
2018-Jul-07 07:55N 37°22' E 023°28'613.8
2018-Jul-07 07:29N 37°26' E 023°33'713.8
2018-Jul-07 07:00N 37°33' E 023°35'713.9
2018-Jul-07 06:30N 37°40' E 023°36'714.0
2018-Jul-07 06:00N 37°46' E 023°38'713.9
2018-Jul-07 05:30N 37°53' E 023°40'3 6.3
2018-Jul-07 05:01N 37°56' E 023°41'0 0.0
2018-Jul-07 04:31N 37°56' E 023°41'0 0.0
2018-Jul-07 04:01N 37°56' E 023°41'0 0.0
2018-Jul-06 16:52N 37°56' E 023°41'3 8.6
2018-Jul-06 16:30N 37°55' E 023°38'714.2
2018-Jul-06 16:01N 37°50' E 023°31'713.5
2018-Jul-06 15:30N 37°45' E 023°25'1 1.4
2018-Jul-06 15:01N 37°45' E 023°26'0 0.0
2018-Jul-06 14:30N 37°45' E 023°26'0 0.0
2018-Jul-06 14:00N 37°45' E 023°26'0 0.0
2018-Jul-06 13:30N 37°45' E 023°26'2 4.6
2018-Jul-06 13:01N 37°42' E 023°25'714.2
2018-Jul-06 12:31N 37°35' E 023°25'5 3.8
2018-Jul-06 11:04N 37°30' E 023°27'0 1.7
2018-Jul-06 10:59N 37°30' E 023°27'6 1.7
2018-Jul-06 07:35N 37°26' E 023°33'514.0
2018-Jul-06 07:13N 37°31' E 023°35'413.9
2018-Jul-06 06:55N 37°35' E 023°36'613.7
2018-Jul-06 06:30N 37°40' E 023°37'713.9
2018-Jul-06 06:00N 37°47' E 023°38'714.0
2018-Jul-06 05:31N 37°54' E 023°40'2 4.6
2018-Jul-06 05:00N 37°56' E 023°41'0 0.0
2018-Jul-06 04:30N 37°56' E 023°41'0 0.0
2018-Jul-06 04:00N 37°56' E 023°41'0 0.0
2018-Jul-05 16:51N 37°56' E 023°41'1 4.2
2018-Jul-05 16:30N 37°55' E 023°40'714.0
2018-Jul-05 16:00N 37°51' E 023°33'713.8
2018-Jul-05 15:30N 37°47' E 023°26'2 4.0
2018-Jul-05 15:00N 37°45' E 023°26'0 0.0
2018-Jul-05 14:30N 37°45' E 023°26'0 0.0
2018-Jul-05 13:29N 37°45' E 023°26'3 6.6
2018-Jul-05 13:00N 37°42' E 023°25'714.0
2018-Jul-05 12:29N 37°34' E 023°25'4 3.3
2018-Jul-05 11:07N 37°30' E 023°27'1 4.4
2018-Jul-05 10:59N 37°30' E 023°28'8 2.7
2018-Jul-05 08:04N 37°22' E 023°28'113.8
2018-Jul-05 08:00N 37°22' E 023°29'713.6
2018-Jul-05 07:29N 37°28' E 023°34'714.0
2018-Jul-05 07:00N 37°35' E 023°35'713.8
2018-Jul-05 06:30N 37°42' E 023°36'713.9
2018-Jul-05 06:00N 37°48' E 023°38'714.0
2018-Jul-05 05:30N 37°55' E 023°40'1 2.6
2018-Jul-05 05:00N 37°56' E 023°41'0 0.0
2018-Jul-05 04:31N 37°56' E 023°41'0 0.0
2018-Jul-05 04:00N 37°56' E 023°41'0 0.0
2018-Jul-05 03:30N 37°56' E 023°41'0 0.0
2018-Jul-04 16:47N 37°56' E 023°41'2 7.5
2018-Jul-04 16:30N 37°55' E 023°39'714.1
2018-Jul-04 16:00N 37°51' E 023°32'713.9
2018-Jul-04 15:30N 37°46' E 023°25'2 3.0
2018-Jul-04 15:00N 37°45' E 023°26'0 0.0
2018-Jul-04 14:30N 37°45' E 023°26'0 0.0
2018-Jul-04 14:00N 37°45' E 023°26'0 0.0
2018-Jul-04 13:30N 37°45' E 023°26'3 6.5
2018-Jul-04 13:00N 37°41' E 023°25'714.3
2018-Jul-04 12:30N 37°34' E 023°25'5 3.0
2018-Jul-04 10:58N 37°30' E 023°27'510.6
2018-Jul-04 10:30N 37°27' E 023°32'6 2.4
2018-Jul-04 07:59N 37°22' E 023°28'713.9
2018-Jul-04 07:30N 37°27' E 023°33'714.0
2018-Jul-04 07:00N 37°34' E 023°36'713.9
2018-Jul-04 06:31N 37°40' E 023°38'714.0
2018-Jul-04 06:01N 37°47' E 023°39'713.7
2018-Jul-04 05:30N 37°54' E 023°40'2 4.8
2018-Jul-04 05:00N 37°56' E 023°41'0 0.0
2018-Jul-04 04:30N 37°56' E 023°41'0 0.0
2018-Jul-04 04:00N 37°56' E 023°41'0 0.0
2018-Jul-03 16:53N 37°56' E 023°41'2 4.6
2018-Jul-03 16:30N 37°55' E 023°39'714.1
2018-Jul-03 16:00N 37°51' E 023°32'714.0
2018-Jul-03 15:30N 37°46' E 023°26'2 3.4
2018-Jul-03 15:01N 37°45' E 023°26'0 0.0
2018-Jul-03 14:30N 37°45' E 023°26'0 0.0
2018-Jul-03 14:00N 37°45' E 023°26'0 0.0
2018-Jul-03 13:30N 37°45' E 023°26'3 6.7
2018-Jul-03 13:00N 37°41' E 023°25'714.2
2018-Jul-03 12:30N 37°34' E 023°25'4 9.0
2018-Jul-03 12:00N 37°30' E 023°27'0 0.0
2018-Jul-03 11:30N 37°30' E 023°27'2 2.8
2018-Jul-03 10:58N 37°29' E 023°29'8 2.7
2018-Jul-03 08:07N 37°22' E 023°28'213.1
2018-Jul-03 07:59N 37°23' E 023°30'713.8
2018-Jul-03 07:30N 37°29' E 023°34'714.1
2018-Jul-03 07:00N 37°36' E 023°36'714.1
2018-Jul-03 06:30N 37°43' E 023°37'714.0
2018-Jul-03 06:00N 37°49' E 023°39'713.8
2018-Jul-03 05:30N 37°56' E 023°41'0 0.5
2018-Jul-03 05:00N 37°56' E 023°41'0 0.0
2018-Jul-03 04:30N 37°56' E 023°41'0 0.0
2018-Jul-03 04:00N 37°56' E 023°41'0 0.0
2018-Jul-02 16:39N 37°56' E 023°41'0 1.3
2018-Jul-02 16:30N 37°56' E 023°41'713.6
2018-Jul-02 16:00N 37°52' E 023°34'714.2
2018-Jul-02 15:30N 37°47' E 023°27'3 5.9
2018-Jul-02 15:00N 37°45' E 023°26'0 0.0
2018-Jul-02 14:30N 37°45' E 023°26'0 0.0
2018-Jul-02 14:00N 37°45' E 023°26'0 0.0
2018-Jul-02 13:30N 37°45' E 023°26'1 2.2
2018-Jul-02 13:00N 37°44' E 023°25'714.3
2018-Jul-02 12:30N 37°37' E 023°25'612.8
2018-Jul-02 12:00N 37°30' E 023°27'0 0.4
2018-Jul-02 10:58N 37°30' E 023°27'5 9.9
2018-Jul-02 10:30N 37°27' E 023°32'7 2.6
2018-Jul-02 07:55N 37°21' E 023°28'513.0
2018-Jul-02 07:31N 37°25' E 023°32'714.4
2018-Jul-02 07:00N 37°32' E 023°35'714.3
2018-Jul-02 06:31N 37°39' E 023°37'714.5
2018-Jul-02 06:00N 37°46' E 023°39'714.4
2018-Jul-02 05:30N 37°53' E 023°40'3 5.9
2018-Jul-02 05:00N 37°56' E 023°41'0 0.0
2018-Jul-02 04:30N 37°56' E 023°41'0 0.0
2018-Jul-02 04:00N 37°56' E 023°41'0 0.0
2018-Jul-01 16:33N 37°56' E 023°41'0 0.0
2018-Jul-01 16:31N 37°56' E 023°41'510.3
2018-Jul-01 16:00N 37°53' E 023°36'714.6
2018-Jul-01 15:30N 37°48' E 023°29'5 9.0
2018-Jul-01 15:00N 37°45' E 023°26'0 0.0
2018-Jul-01 14:30N 37°45' E 023°26'0 0.0
2018-Jul-01 14:00N 37°45' E 023°26'0 0.0
2018-Jul-01 13:30N 37°45' E 023°26'0 0.1
2018-Jul-01 13:00N 37°45' E 023°25'713.5
2018-Jul-01 12:31N 37°38' E 023°25'713.8
2018-Jul-01 11:59N 37°31' E 023°26'1 1.2
2018-Jul-01 10:55N 37°30' E 023°27'3 7.3
2018-Jul-01 10:30N 37°28' E 023°30'611.7
2018-Jul-01 09:57N 37°22' E 023°29'1 0.2
2018-Jul-01 07:49N 37°22' E 023°28'514.3
2018-Jul-01 07:28N 37°26' E 023°32'714.2
2018-Jul-01 07:01N 37°32' E 023°35'714.1
2018-Jul-01 06:30N 37°39' E 023°36'714.1
2018-Jul-01 06:00N 37°46' E 023°37'714.0
2018-Jul-01 05:31N 37°53' E 023°39'4 7.6
2018-Jul-01 05:00N 37°56' E 023°41'0 0.0
2018-Jul-01 04:30N 37°56' E 023°41'0 0.0
2018-Jul-01 04:00N 37°56' E 023°41'  

Dump ship's entire track history